createdAt,value
2023-03-30T00:01:17.454Z,100.00
2023-03-30T00:03:45.936Z,100.00
2023-03-30T00:06:14.744Z,100.00
2023-03-30T00:08:41.279Z,100.00
2023-03-30T00:11:13.190Z,100.00
2023-03-30T00:13:40.209Z,100.00
2023-03-30T00:16:09.104Z,100.00
2023-03-30T00:18:36.689Z,100.00
2023-03-30T00:21:03.804Z,100.00
2023-03-30T00:23:30.880Z,100.00
2023-03-30T00:25:57.317Z,100.00
2023-03-30T00:28:26.084Z,100.00
2023-03-30T00:30:53.686Z,100.00
2023-03-30T00:33:27.590Z,100.00
2023-03-30T00:36:00.328Z,100.00
2023-03-30T00:38:27.205Z,100.00
2023-03-30T00:40:55.957Z,100.00
2023-03-30T00:43:22.999Z,99.95
2023-03-30T00:45:49.869Z,99.43
2023-03-30T00:48:19.423Z,99.58
2023-03-30T00:50:53.299Z,99.41
2023-03-30T00:53:28.731Z,99.81
2023-03-30T00:55:56.099Z,99.55
2023-03-30T00:58:23.020Z,99.73
2023-03-30T01:00:49.572Z,99.68
2023-03-30T01:03:19.424Z,99.64
2023-03-30T01:05:46.280Z,99.69
2023-03-30T01:08:16.568Z,99.54
2023-03-30T01:10:44.664Z,99.52
2023-03-30T01:13:12.782Z,99.83
2023-03-30T01:15:48.639Z,99.58
2023-03-30T01:18:24.113Z,99.90
2023-03-30T01:21:04.239Z,99.57
2023-03-30T01:23:49.601Z,99.42
2023-03-30T01:26:36.448Z,99.38
2023-03-30T01:29:10.202Z,99.47
2023-03-30T01:31:54.716Z,98.62
2023-03-30T01:34:33.690Z,99.29
2023-03-30T01:37:28.812Z,99.24
2023-03-30T01:40:17.298Z,99.43
2023-03-30T01:42:57.491Z,99.14
2023-03-30T01:45:33.529Z,99.11
2023-03-30T01:48:13.831Z,99.20
2023-03-30T01:50:42.987Z,98.93
2023-03-30T01:53:23.455Z,99.08
2023-03-30T01:55:55.802Z,98.99
2023-03-30T01:58:44.218Z,99.47
2023-03-30T02:01:13.603Z,99.17
2023-03-30T02:03:42.053Z,98.89
2023-03-30T02:06:24.443Z,99.24
2023-03-30T02:08:52.450Z,99.17
2023-03-30T02:11:18.869Z,98.86
2023-03-30T02:13:47.325Z,98.64
2023-03-30T02:16:16.755Z,98.97
2023-03-30T02:18:43.473Z,98.89
2023-03-30T02:21:09.958Z,98.76
2023-03-30T02:23:39.964Z,98.70
2023-03-30T02:26:08.025Z,98.62
2023-03-30T02:28:35.169Z,98.70
2023-03-30T02:31:01.926Z,98.67
2023-03-30T02:33:36.461Z,98.72
2023-03-30T02:36:10.271Z,98.65
2023-03-30T02:38:52.740Z,98.56
2023-03-30T02:41:33.201Z,98.44
2023-03-30T02:44:14.743Z,98.48
2023-03-30T02:46:49.901Z,98.07
2023-03-30T02:49:47.288Z,97.90
2023-03-30T02:52:36.864Z,98.00
2023-03-30T02:55:22.196Z,97.45
2023-03-30T02:57:55.798Z,97.21
2023-03-30T03:00:28.201Z,97.49
2023-03-30T03:02:58.384Z,97.23
2023-03-30T03:05:26.333Z,97.12
2023-03-30T03:07:53.574Z,97.03
2023-03-30T03:10:20.042Z,96.79
2023-03-30T03:12:46.838Z,97.12
2023-03-30T03:15:13.830Z,97.50
2023-03-30T03:17:40.314Z,97.77
2023-03-30T03:20:10.479Z,97.98
2023-03-30T03:22:37.249Z,98.06
2023-03-30T03:25:05.730Z,98.25
2023-03-30T03:27:32.145Z,98.43
2023-03-30T03:29:58.856Z,98.90
2023-03-30T03:32:25.328Z,99.28
2023-03-30T03:34:52.045Z,99.22
2023-03-30T03:37:18.517Z,99.05
2023-03-30T03:39:44.952Z,98.86
2023-03-30T03:42:11.492Z,98.81
2023-03-30T03:44:38.633Z,98.63
2023-03-30T03:47:05.070Z,98.78
2023-03-30T03:49:31.656Z,98.60
2023-03-30T03:51:58.141Z,98.53
2023-03-30T03:54:24.566Z,98.46
2023-03-30T03:56:51.959Z,98.36
2023-03-30T03:59:19.513Z,98.40
2023-03-30T04:01:46.050Z,98.34
2023-03-30T04:04:12.520Z,98.59
2023-03-30T04:06:38.962Z,98.83
2023-03-30T04:09:05.404Z,98.98
2023-03-30T04:11:31.832Z,99.21
2023-03-30T04:13:58.240Z,99.04
2023-03-30T04:16:24.790Z,99.06
2023-03-30T04:18:51.261Z,99.23
2023-03-30T04:21:20.082Z,99.40
2023-03-30T04:23:49.121Z,99.49
2023-03-30T04:26:15.963Z,99.29
2023-03-30T04:28:42.400Z,99.36
2023-03-30T04:31:12.935Z,99.44
2023-03-30T04:33:51.964Z,99.26
2023-03-30T04:36:20.077Z,99.28
2023-03-30T04:38:58.334Z,99.30
2023-03-30T04:41:29.924Z,99.49
2023-03-30T04:43:56.312Z,99.39
2023-03-30T04:46:22.796Z,99.54
2023-03-30T04:48:49.278Z,99.38
2023-03-30T04:51:16.098Z,99.08
2023-03-30T04:53:42.785Z,99.01
2023-03-30T04:56:09.221Z,99.09
2023-03-30T04:58:35.641Z,99.26
2023-03-30T05:01:03.763Z,98.98
2023-03-30T05:03:31.261Z,98.94
2023-03-30T05:05:57.832Z,99.08
2023-03-30T05:08:24.303Z,99.17
2023-03-30T05:10:50.723Z,99.23
2023-03-30T05:13:17.501Z,99.38
2023-03-30T05:15:43.920Z,99.31
2023-03-30T05:18:10.371Z,99.25
2023-03-30T05:20:36.842Z,99.13
2023-03-30T05:23:03.265Z,99.00
2023-03-30T05:25:31.230Z,99.08
2023-03-30T05:27:58.091Z,98.69
2023-03-30T05:30:24.511Z,98.78
2023-03-30T05:32:52.109Z,98.70
2023-03-30T05:35:18.622Z,98.83
2023-03-30T05:37:45.151Z,98.22
2023-03-30T05:40:11.716Z,98.24
2023-03-30T05:42:38.163Z,98.01
2023-03-30T05:45:05.544Z,97.82
2023-03-30T05:47:32.007Z,97.66
2023-03-30T05:49:58.429Z,96.86
2023-03-30T05:52:24.869Z,96.99
2023-03-30T05:54:51.370Z,96.82
2023-03-30T05:57:17.906Z,96.58
2023-03-30T05:59:44.533Z,96.46
2023-03-30T06:02:12.865Z,96.07
2023-03-30T06:04:40.339Z,95.95
2023-03-30T06:07:07.915Z,95.75
2023-03-30T06:09:34.556Z,95.83
2023-03-30T06:12:01.141Z,95.22
2023-03-30T06:14:27.625Z,95.48
2023-03-30T06:16:54.079Z,94.94
2023-03-30T06:19:20.642Z,94.69
2023-03-30T06:21:47.709Z,94.18
2023-03-30T06:24:14.157Z,94.53
2023-03-30T06:26:41.197Z,93.76
2023-03-30T06:29:07.632Z,93.49
2023-03-30T06:31:34.249Z,93.36
2023-03-30T06:34:01.011Z,93.16
2023-03-30T06:36:45.188Z,92.83
2023-03-30T06:39:13.031Z,92.84
2023-03-30T06:41:39.458Z,92.26
2023-03-30T06:44:06.630Z,91.89
2023-03-30T06:46:33.529Z,91.16
2023-03-30T06:48:59.949Z,91.31
2023-03-30T06:51:26.522Z,91.38
2023-03-30T06:53:52.984Z,91.43
2023-03-30T06:56:19.382Z,91.17
2023-03-30T06:58:46.830Z,90.97
2023-03-30T07:01:15.485Z,91.13
2023-03-30T07:03:41.969Z,90.83
2023-03-30T07:06:09.663Z,90.17
2023-03-30T07:08:37.051Z,89.64
2023-03-30T07:11:05.203Z,88.79
2023-03-30T07:13:34.207Z,88.44
2023-03-30T07:16:00.963Z,87.86
2023-03-30T07:18:27.401Z,87.53
2023-03-30T07:20:53.860Z,86.48
2023-03-30T07:23:21.623Z,85.70
2023-03-30T07:25:48.113Z,85.04
2023-03-30T07:28:14.585Z,84.83
2023-03-30T07:30:41.350Z,84.02
2023-03-30T07:33:07.967Z,84.05
2023-03-30T07:35:34.472Z,83.92
2023-03-30T07:38:03.747Z,83.37
2023-03-30T07:40:30.443Z,83.17
2023-03-30T07:42:56.959Z,82.98
2023-03-30T07:45:23.376Z,82.77
2023-03-30T07:47:49.849Z,82.65
2023-03-30T07:50:16.474Z,82.73
2023-03-30T07:52:42.978Z,82.85
2023-03-30T07:55:09.508Z,82.76
2023-03-30T07:57:35.988Z,82.45
2023-03-30T08:00:05.258Z,82.52
2023-03-30T08:02:31.744Z,82.60
2023-03-30T08:04:58.328Z,82.69
2023-03-30T08:07:27.554Z,82.28
2023-03-30T08:09:54.011Z,81.92
2023-03-30T08:12:20.441Z,81.77
2023-03-30T08:14:46.856Z,81.46
2023-03-30T08:17:13.494Z,81.00
2023-03-30T08:19:39.915Z,81.01
2023-03-30T08:22:06.617Z,80.90
2023-03-30T08:24:33.024Z,80.69
2023-03-30T08:26:59.482Z,80.97
2023-03-30T08:29:25.902Z,80.67
2023-03-30T08:31:52.701Z,80.41
2023-03-30T08:34:20.120Z,80.51
2023-03-30T08:36:46.709Z,80.27
2023-03-30T08:39:13.144Z,79.78
2023-03-30T08:42:02.115Z,79.43
2023-03-30T08:44:34.450Z,79.20
2023-03-30T08:47:04.249Z,78.37
2023-03-30T08:49:33.860Z,78.61
2023-03-30T08:52:03.045Z,78.18
2023-03-30T08:54:30.567Z,78.20
2023-03-30T08:57:06.223Z,77.56
2023-03-30T08:59:51.572Z,77.12
2023-03-30T09:02:23.416Z,77.08
2023-03-30T09:05:04.719Z,76.57
2023-03-30T09:07:38.084Z,75.83
2023-03-30T09:10:04.757Z,75.64
2023-03-30T09:12:46.753Z,75.42
2023-03-30T09:15:32.246Z,75.14
2023-03-30T09:18:07.567Z,75.02
2023-03-30T09:20:36.211Z,74.80
2023-03-30T09:23:03.692Z,74.79
2023-03-30T09:25:49.192Z,74.92
2023-03-30T09:28:21.152Z,74.62
2023-03-30T09:31:20.501Z,74.43
2023-03-30T09:34:08.941Z,74.37
2023-03-30T09:36:39.911Z,74.22
2023-03-30T09:39:19.148Z,73.77
2023-03-30T09:41:51.803Z,72.93
2023-03-30T09:44:27.322Z,72.40
2023-03-30T09:46:58.499Z,71.72
2023-03-30T09:49:28.743Z,71.35
2023-03-30T09:52:04.485Z,70.85
2023-03-30T09:54:38.724Z,70.39
2023-03-30T09:57:05.621Z,70.12
2023-03-30T09:59:37.144Z,70.14
2023-03-30T10:02:12.626Z,69.66
2023-03-30T10:04:52.175Z,68.15
2023-03-30T10:07:31.095Z,67.67
2023-03-30T10:09:59.167Z,67.37
2023-03-30T10:12:26.414Z,67.68
2023-03-30T10:14:58.358Z,67.71
2023-03-30T10:17:26.008Z,66.90
2023-03-30T10:20:14.969Z,66.17
2023-03-30T10:22:56.453Z,66.94
2023-03-30T10:25:31.476Z,67.49
2023-03-30T10:28:02.679Z,67.23
2023-03-30T10:30:29.618Z,66.80
2023-03-30T10:32:59.032Z,66.99
2023-03-30T10:35:27.702Z,67.32
2023-03-30T10:37:55.810Z,65.98
2023-03-30T10:40:27.905Z,65.74
2023-03-30T10:42:57.538Z,66.12
2023-03-30T10:45:48.377Z,66.41
2023-03-30T10:48:34.796Z,66.23
2023-03-30T10:51:27.563Z,66.20
2023-03-30T10:54:23.581Z,65.46
2023-03-30T10:57:22.472Z,65.59
2023-03-30T10:59:57.958Z,65.68
2023-03-30T11:02:39.626Z,65.89
2023-03-30T11:05:12.421Z,64.62
2023-03-30T11:07:44.083Z,64.41
2023-03-30T11:10:22.240Z,64.29
2023-03-30T11:13:07.073Z,64.43
2023-03-30T11:15:38.740Z,63.66
2023-03-30T11:18:21.912Z,62.01
2023-03-30T11:20:56.992Z,62.21
2023-03-30T11:23:45.773Z,62.18
2023-03-30T11:26:15.983Z,61.54
2023-03-30T11:29:03.920Z,60.38
2023-03-30T11:31:44.936Z,59.29
2023-03-30T11:34:21.468Z,58.84
2023-03-30T11:37:13.241Z,56.68
2023-03-30T11:39:46.229Z,56.65
2023-03-30T11:42:17.322Z,57.08
2023-03-30T11:44:44.051Z,56.79
2023-03-30T11:47:15.341Z,55.71
2023-03-30T11:50:01.933Z,53.98
2023-03-30T11:52:33.275Z,54.23
2023-03-30T11:55:23.865Z,54.78
2023-03-30T11:58:06.840Z,54.06
2023-03-30T12:00:51.984Z,54.71
2023-03-30T12:03:39.506Z,53.29
2023-03-30T12:06:31.180Z,53.15
2023-03-30T12:09:03.428Z,53.56
2023-03-30T12:11:39.640Z,54.05
2023-03-30T12:14:27.277Z,53.42
2023-03-30T12:16:59.115Z,53.17
2023-03-30T12:19:55.481Z,53.54
2023-03-30T12:22:34.942Z,54.96
2023-03-30T12:25:15.151Z,57.07
2023-03-30T12:28:01.146Z,58.70
2023-03-30T12:30:43.850Z,59.05
2023-03-30T12:33:26.247Z,59.16
2023-03-30T12:35:56.060Z,59.97
2023-03-30T12:38:46.203Z,62.18
2023-03-30T12:41:15.940Z,63.90
2023-03-30T12:43:58.669Z,66.06
2023-03-30T12:46:41.860Z,66.55
2023-03-30T12:49:16.407Z,67.23
2023-03-30T12:52:05.111Z,67.33
2023-03-30T12:54:49.729Z,64.36
2023-03-30T12:57:36.693Z,64.64
2023-03-30T13:00:23.493Z,65.91
2023-03-30T13:03:00.797Z,69.07
2023-03-30T13:05:32.926Z,71.04
2023-03-30T13:08:05.484Z,72.84
2023-03-30T13:10:31.885Z,72.99
2023-03-30T13:13:00.034Z,73.05
2023-03-30T13:15:33.892Z,73.33
2023-03-30T13:18:09.546Z,73.95
2023-03-30T13:20:57.505Z,74.87
2023-03-30T13:23:27.384Z,74.85
2023-03-30T13:26:03.107Z,75.25
2023-03-30T13:28:54.773Z,75.37
2023-03-30T13:31:40.313Z,75.63
2023-03-30T13:34:16.565Z,75.99
2023-03-30T13:36:52.785Z,75.58
2023-03-30T13:39:26.308Z,74.69
2023-03-30T13:42:18.937Z,75.06
2023-03-30T13:44:59.022Z,75.72
2023-03-30T13:47:57.714Z,76.46
2023-03-30T13:50:27.976Z,77.14
2023-03-30T13:52:55.808Z,77.94
2023-03-30T13:55:30.135Z,78.05
2023-03-30T13:58:29.088Z,78.28
2023-03-30T14:01:01.501Z,77.94
2023-03-30T14:04:00.781Z,78.01
2023-03-30T14:06:30.156Z,78.57
2023-03-30T14:09:05.489Z,78.17
2023-03-30T14:11:50.136Z,77.88
2023-03-30T14:14:31.156Z,77.21
2023-03-30T14:16:59.907Z,77.94
2023-03-30T14:19:34.094Z,78.27
2023-03-30T14:22:04.733Z,77.10
2023-03-30T14:24:33.352Z,77.50
2023-03-30T14:27:06.401Z,77.15
2023-03-30T14:29:33.236Z,76.76
2023-03-30T14:32:08.152Z,76.79
2023-03-30T14:34:35.995Z,77.32
2023-03-30T14:37:07.801Z,77.41
2023-03-30T14:39:40.488Z,76.67
2023-03-30T14:42:17.512Z,75.34
2023-03-30T14:44:45.604Z,74.77
2023-03-30T14:47:12.186Z,75.43
2023-03-30T14:49:39.072Z,75.12
2023-03-30T14:52:24.304Z,74.90
2023-03-30T14:55:05.052Z,75.31
2023-03-30T14:57:37.799Z,75.38
2023-03-30T15:00:21.023Z,74.58
2023-03-30T15:02:53.965Z,74.98
2023-03-30T15:05:23.074Z,74.49
2023-03-30T15:07:50.412Z,73.55
2023-03-30T15:10:31.692Z,73.86
2023-03-30T15:12:58.185Z,73.74
2023-03-30T15:15:28.355Z,73.52
2023-03-30T15:17:55.440Z,73.72
2023-03-30T15:20:25.672Z,73.28
2023-03-30T15:22:52.329Z,73.65
2023-03-30T15:25:21.395Z,73.40
2023-03-30T15:27:54.855Z,71.41
2023-03-30T15:30:35.041Z,64.51
2023-03-30T15:33:02.417Z,61.33
2023-03-30T15:35:34.004Z,61.17
2023-03-30T15:38:10.857Z,59.95
2023-03-30T15:40:42.772Z,59.17
2023-03-30T15:43:19.509Z,58.80
2023-03-30T15:45:49.031Z,58.54
2023-03-30T15:48:18.824Z,58.49
2023-03-30T15:50:49.784Z,58.58
2023-03-30T15:53:21.161Z,57.89
2023-03-30T15:55:51.610Z,58.71
2023-03-30T15:58:23.178Z,59.76
2023-03-30T16:00:49.742Z,60.27
2023-03-30T16:03:31.500Z,62.22
2023-03-30T16:05:58.224Z,64.22
2023-03-30T16:08:24.642Z,64.32
2023-03-30T16:10:51.185Z,64.67
2023-03-30T16:13:17.679Z,64.59
2023-03-30T16:15:44.280Z,64.05
2023-03-30T16:18:12.247Z,63.59
2023-03-30T16:20:38.713Z,62.81
2023-03-30T16:23:05.193Z,62.79
2023-03-30T16:25:44.224Z,62.91
2023-03-30T16:28:17.022Z,63.16
2023-03-30T16:30:45.876Z,63.36
2023-03-30T16:33:12.366Z,63.79
2023-03-30T16:35:38.845Z,63.72
2023-03-30T16:38:05.500Z,64.28
2023-03-30T16:40:37.376Z,64.80
2023-03-30T16:43:04.343Z,65.02
2023-03-30T16:45:32.112Z,65.54
2023-03-30T16:47:58.658Z,65.68
2023-03-30T16:50:38.151Z,66.45
2023-03-30T16:53:05.440Z,67.24
2023-03-30T16:55:32.204Z,67.76
2023-03-30T16:57:58.727Z,68.16
2023-03-30T17:00:27.867Z,68.75
2023-03-30T17:02:54.438Z,68.70
2023-03-30T17:05:20.933Z,65.78
2023-03-30T17:07:47.703Z,64.29
2023-03-30T17:10:15.556Z,66.49
2023-03-30T17:12:42.995Z,68.34
2023-03-30T17:15:10.119Z,68.63
2023-03-30T17:17:37.310Z,68.69
2023-03-30T17:20:34.627Z,69.59
2023-03-30T17:23:01.071Z,69.79
2023-03-30T17:25:27.527Z,70.65
2023-03-30T17:27:55.466Z,71.49
2023-03-30T17:30:26.678Z,72.79
2023-03-30T17:32:55.265Z,72.93
2023-03-30T17:35:22.901Z,72.59
2023-03-30T17:37:49.478Z,72.50
2023-03-30T17:40:19.211Z,73.03
2023-03-30T17:42:46.237Z,73.29
2023-03-30T17:45:14.979Z,73.65
2023-03-30T17:47:42.065Z,73.61
2023-03-30T17:50:25.624Z,74.34
2023-03-30T17:52:52.751Z,74.28
2023-03-30T17:55:20.261Z,74.59
2023-03-30T17:57:46.790Z,74.97
2023-03-30T18:00:16.896Z,75.39
2023-03-30T18:02:43.397Z,75.62
2023-03-30T18:05:10.246Z,75.83
2023-03-30T18:07:36.798Z,76.25
2023-03-30T18:10:16.040Z,76.61
2023-03-30T18:12:42.502Z,76.74
2023-03-30T18:15:09.143Z,77.12
2023-03-30T18:17:35.636Z,77.42
2023-03-30T18:20:15.168Z,77.99
2023-03-30T18:22:41.593Z,78.41
2023-03-30T18:25:09.708Z,78.75
2023-03-30T18:27:39.465Z,79.11
2023-03-30T18:30:23.730Z,79.46
2023-03-30T18:32:50.920Z,79.98
2023-03-30T18:35:18.861Z,80.42
2023-03-30T18:37:45.699Z,80.52
2023-03-30T18:40:18.840Z,81.11
2023-03-30T18:42:45.612Z,81.46
2023-03-30T18:45:23.640Z,81.62
2023-03-30T18:47:50.346Z,82.47
2023-03-30T18:50:20.891Z,83.00
2023-03-30T18:52:47.326Z,83.11
2023-03-30T18:55:15.253Z,83.42
2023-03-30T18:57:42.138Z,83.86
2023-03-30T19:00:18.989Z,83.99
2023-03-30T19:02:45.861Z,83.91
2023-03-30T19:05:12.348Z,84.19
2023-03-30T19:07:39.115Z,84.61
2023-03-30T19:10:06.419Z,84.74
2023-03-30T19:12:33.829Z,84.90
2023-03-30T19:15:00.330Z,85.06
2023-03-30T19:17:27.332Z,84.95
2023-03-30T19:19:53.771Z,84.95
2023-03-30T19:22:20.246Z,84.92
2023-03-30T19:24:46.705Z,85.01
2023-03-30T19:27:13.182Z,85.14
2023-03-30T19:29:39.687Z,85.29
2023-03-30T19:32:06.171Z,85.40
2023-03-30T19:34:32.650Z,85.31
2023-03-30T19:36:59.105Z,85.36
2023-03-30T19:39:25.516Z,85.32
2023-03-30T19:41:52.060Z,85.41
2023-03-30T19:44:18.457Z,85.21
2023-03-30T19:46:44.960Z,85.72
2023-03-30T19:49:11.426Z,85.68
2023-03-30T19:51:37.825Z,85.58
2023-03-30T19:54:04.319Z,85.38
2023-03-30T19:56:30.790Z,85.60
2023-03-30T19:58:58.704Z,85.83
2023-03-30T20:01:25.164Z,86.09
2023-03-30T20:03:51.742Z,86.59
2023-03-30T20:06:18.191Z,86.75
2023-03-30T20:08:45.033Z,86.65
2023-03-30T20:11:12.470Z,86.86
2023-03-30T20:13:45.272Z,86.67
2023-03-30T20:16:20.216Z,86.70
2023-03-30T20:18:50.592Z,86.50
2023-03-30T20:21:21.756Z,86.92
2023-03-30T20:23:48.339Z,87.02
2023-03-30T20:26:16.727Z,86.84
2023-03-30T20:28:43.740Z,86.47
2023-03-30T20:31:11.831Z,86.53
2023-03-30T20:33:38.756Z,85.76
2023-03-30T20:36:08.967Z,85.43
2023-03-30T20:38:39.600Z,85.73
2023-03-30T20:41:07.171Z,85.56
2023-03-30T20:43:38.467Z,85.62
2023-03-30T20:46:14.021Z,85.71
2023-03-30T20:48:41.283Z,85.69
2023-03-30T20:51:10.999Z,85.72
2023-03-30T20:53:37.754Z,86.01
2023-03-30T20:56:05.824Z,86.17
2023-03-30T20:58:32.371Z,86.31
2023-03-30T21:00:58.927Z,86.48
2023-03-30T21:03:29.197Z,86.73
2023-03-30T21:06:00.804Z,86.70
2023-03-30T21:08:27.318Z,86.50
2023-03-30T21:10:53.766Z,86.73
2023-03-30T21:13:20.318Z,86.76
2023-03-30T21:15:46.763Z,86.88
2023-03-30T21:18:13.404Z,87.50
2023-03-30T21:20:39.928Z,87.60
2023-03-30T21:23:06.852Z,88.10
2023-03-30T21:25:33.327Z,88.40
2023-03-30T21:27:59.802Z,88.71
2023-03-30T21:30:28.356Z,88.64
2023-03-30T21:32:54.867Z,88.62
2023-03-30T21:35:21.367Z,88.81
2023-03-30T21:37:47.873Z,88.63
2023-03-30T21:40:14.354Z,88.60
2023-03-30T21:42:40.833Z,88.23
2023-03-30T21:45:07.969Z,88.07
2023-03-30T21:47:34.566Z,87.68
2023-03-30T21:50:01.035Z,88.06
2023-03-30T21:52:28.862Z,87.88
2023-03-30T21:54:55.320Z,88.42
2023-03-30T21:57:22.005Z,88.22
2023-03-30T21:59:48.634Z,88.23
2023-03-30T22:02:15.228Z,88.33
2023-03-30T22:04:44.820Z,88.64
2023-03-30T22:07:11.380Z,88.48
2023-03-30T22:09:37.867Z,88.43
2023-03-30T22:12:04.427Z,88.56
2023-03-30T22:14:31.018Z,88.25
2023-03-30T22:16:57.935Z,88.49
2023-03-30T22:19:24.716Z,88.04
2023-03-30T22:21:51.952Z,88.17
2023-03-30T22:24:19.243Z,88.22
2023-03-30T22:26:46.262Z,87.53
2023-03-30T22:29:13.017Z,87.81
2023-03-30T22:31:42.583Z,87.41
2023-03-30T22:34:09.073Z,87.27
2023-03-30T22:36:35.694Z,87.20
2023-03-30T22:39:03.735Z,87.08
2023-03-30T22:41:30.636Z,86.76
2023-03-30T22:43:57.957Z,86.70
2023-03-30T22:46:25.549Z,86.18
2023-03-30T22:48:52.677Z,86.10
2023-03-30T22:51:28.306Z,85.92
2023-03-30T22:53:59.360Z,85.99
2023-03-30T22:56:27.405Z,86.06
2023-03-30T22:58:54.040Z,86.07
2023-03-30T23:01:21.587Z,86.25
2023-03-30T23:03:48.193Z,86.43
2023-03-30T23:06:14.854Z,86.49
2023-03-30T23:08:42.548Z,86.31
2023-03-30T23:11:09.023Z,86.40
2023-03-30T23:13:37.792Z,86.32
2023-03-30T23:16:06.548Z,86.32
2023-03-30T23:18:34.232Z,86.69
2023-03-30T23:21:06.082Z,86.13
2023-03-30T23:23:34.518Z,86.33
2023-03-30T23:26:03.024Z,86.21
2023-03-30T23:28:31.484Z,85.91
2023-03-30T23:30:58.161Z,85.94
2023-03-30T23:33:25.078Z,86.06
2023-03-30T23:35:51.571Z,86.12
2023-03-30T23:38:18.161Z,86.25
2023-03-30T23:40:44.606Z,86.29
2023-03-30T23:43:11.090Z,86.14
2023-03-30T23:45:37.577Z,86.14
2023-03-30T23:48:04.212Z,86.33
2023-03-30T23:50:33.047Z,86.26
2023-03-30T23:52:59.602Z,86.51
2023-03-30T23:55:26.149Z,86.19
2023-03-30T23:57:52.630Z,86.18
